Terminal Aerodrome Forecast
Issued by NWS Albany, NY

Home | Current Version | Previous Version | Text Only | Print | Product List | Glossary On
Versions: 1 2 3 4 5 6 7 8 9 10 11 12 13 14 15 16 17 18
000
FTUS41 KALY 201739
TAFALB
TAF
KALB 201739Z 2018/2118 31010KT P6SM FEW040
     FM210100 VRB03KT P6SM SKC
     FM211500 16006KT P6SM BKN150 OVC200=

USA.gov is the U.S. government's official web portal to all federal, state and local government web resources and services.